Aérodrome :







RETROUVEZ-NOUS SUR...

 
LOGIN :

S'inscrire | Disclaimer

   EN    FR    IT 

 









Légende :    VFR   VFR Marginal   IFR   IFR Intensif   IFR Très Intensif
Visi : 
Plafond : 
>= 8 km
>= 3000ft
5 à 8 km
1000 à 3000 ft
1500m à 5 km
500 à 1000 ft
800 à 1500m
200 à 500 ft
< 800m
< 200 ft
Symboles :   Orages  Brouillard  Fortes neiges  Fortes précipitations  Vent > 20 kt






- Altitude de l'aérodrome : 38 ft
- Code IATA : YMH


CYMH - Mary's Harbour

DERNIER METAR :
  • 241300Z AUTO 30017G23KT 9SM CLR M12/M20 A3011 RMK SLP198

METARs EXPIRÉS :
  • 241241Z AUTO 30015G30KT 9SM CLR M12/M20 A3010 RMK PRESRR SLP197
  • 241227Z AUTO 31019G30KT 6SM -SN CLR M12/M20 A3009 RMK PRESRR SLP193
  • 241211Z AUTO 31018G33KT 3SM -SN CLR M12/M19 A3008 RMK PRESRR SLP187
  • 241156Z AUTO 30022G37KT 2 1/4SM -SN BLSN CLR M12/M19 A3007 RMK VIS VRB 3/4-3 SLP183
  • 241150Z AUTO 30024G37KT 5SM -SN CLR M12/M19 A3006 RMK SLP181
  • 241147Z AUTO 31019G27KT 9SM -SN CLR M12/M19 A3006 RMK SLP182
  • 241100Z AUTO 32013G22KT 9SM FEW037 M11/M18 A3004 RMK PRESRR SLP174
  • 241041Z AUTO 32016G25KT 9SM CLR M11/M17 A3002 RMK SLP167

TAF AMD TAF CYMH
Valide du 24 à 12h jusqu'au 24 à 22h UTC


241220Z 2412/2422 32015G30KT P6SM FEW030
TEMPO 2412/2416 3SM BLSN
BECMG 2416/2418 31010G20KT RMK FCST BASED ON AUTO OBS. NXT FCST BY 241400Z



MET'MAP, la Météo Aéronautique d'un coup d'oeil ! - Copyright ORBIFLY Décembre 2007 - Disclaimer

ORBIFLY MET'MAP TEAM :

Programmation & Développement : Alexandra Zaïnal
Sur une idée originale de : Baudouin d'Aumeries
Assistance à la programmation : Marc-Olivier Méhu
Soutien technique & logistique : Manuel Goepfert

Contact : metmap@orbifly.com




SOURCES & CREDITS :

   NOAA